sensor_id;sensor_type;location;lat;lon;timestamp;P1;durP1;ratioP1;P2;durP2;ratioP2
70927;SDS011;58587;53.034;18.576;2024-01-25T00:00:28;6.82;;;1.45;;
70927;SDS011;58587;53.034;18.576;2024-01-25T00:02:53;6.30;;;2.22;;
70927;SDS011;58587;53.034;18.576;2024-01-25T00:05:18;5.63;;;1.13;;
70927;SDS011;58587;53.034;18.576;2024-01-25T00:07:47;7.80;;;2.43;;
70927;SDS011;58587;53.034;18.576;2024-01-25T00:10:13;5.95;;;1.88;;
70927;SDS011;58587;53.034;18.576;2024-01-25T00:12:40;10.97;;;4.83;;
70927;SDS011;58587;53.034;18.576;2024-01-25T00:15:05;8.32;;;1.65;;
70927;SDS011;58587;53.034;18.576;2024-01-25T00:17:31;4.90;;;1.20;;
70927;SDS011;58587;53.034;18.576;2024-01-25T00:19:56;7.67;;;2.27;;
70927;SDS011;58587;53.034;18.576;2024-01-25T00:22:21;7.23;;;1.90;;
70927;SDS011;58587;53.034;18.576;2024-01-25T00:24:47;8.50;;;2.30;;
70927;SDS011;58587;53.034;18.576;2024-01-25T00:27:12;8.93;;;1.75;;
70927;SDS011;58587;53.034;18.576;2024-01-25T00:29:37;6.93;;;1.20;;
70927;SDS011;58587;53.034;18.576;2024-01-25T00:32:03;8.70;;;1.67;;
70927;SDS011;58587;53.034;18.576;2024-01-25T00:34:28;10.97;;;2.30;;
70927;SDS011;58587;53.034;18.576;2024-01-25T00:36:54;9.70;;;1.48;;
70927;SDS011;58587;53.034;18.576;2024-01-25T00:39:19;12.53;;;3.10;;
70927;SDS011;58587;53.034;18.576;2024-01-25T00:41:45;11.80;;;2.40;;
70927;SDS011;58587;53.034;18.576;2024-01-25T00:44:15;13.35;;;2.38;;
70927;SDS011;58587;53.034;18.576;2024-01-25T00:46:41;9.88;;;2.20;;
70927;SDS011;58587;53.034;18.576;2024-01-25T00:49:07;11.93;;;2.00;;
70927;SDS011;58587;53.034;18.576;2024-01-25T00:51:33;14.33;;;4.30;;
70927;SDS011;58587;53.034;18.576;2024-01-25T00:53:59;16.42;;;2.75;;
70927;SDS011;58587;53.034;18.576;2024-01-25T00:56:24;8.15;;;1.42;;
70927;SDS011;58587;53.034;18.576;2024-01-25T00:58:50;9.20;;;1.50;;
70927;SDS011;58587;53.034;18.576;2024-01-25T01:01:15;12.38;;;1.85;;
70927;SDS011;58587;53.034;18.576;2024-01-25T01:03:43;11.88;;;1.85;;
70927;SDS011;58587;53.034;18.576;2024-01-25T01:06:08;13.75;;;2.90;;
70927;SDS011;58587;53.034;18.576;2024-01-25T01:08:34;13.80;;;3.10;;
70927;SDS011;58587;53.034;18.576;2024-01-25T01:11:01;15.45;;;1.80;;
70927;SDS011;58587;53.034;18.576;2024-01-25T01:13:26;14.00;;;2.20;;
70927;SDS011;58587;53.034;18.576;2024-01-25T01:15:51;10.57;;;3.13;;
70927;SDS011;58587;53.034;18.576;2024-01-25T01:18:17;14.50;;;5.43;;
70927;SDS011;58587;53.034;18.576;2024-01-25T01:20:42;10.57;;;2.23;;
70927;SDS011;58587;53.034;18.576;2024-01-25T01:23:07;11.10;;;1.67;;
70927;SDS011;58587;53.034;18.576;2024-01-25T01:25:32;13.98;;;3.00;;
70927;SDS011;58587;53.034;18.576;2024-01-25T01:27:58;12.37;;;2.37;;
70927;SDS011;58587;53.034;18.576;2024-01-25T01:30:23;10.80;;;1.80;;
70927;SDS011;58587;53.034;18.576;2024-01-25T01:32:48;12.17;;;3.07;;
70927;SDS011;58587;53.034;18.576;2024-01-25T01:35:14;11.00;;;2.20;;
70927;SDS011;58587;53.034;18.576;2024-01-25T01:37:39;12.33;;;1.37;;
70927;SDS011;58587;53.034;18.576;2024-01-25T01:40:04;14.30;;;2.57;;
70927;SDS011;58587;53.034;18.576;2024-01-25T01:42:31;13.50;;;2.30;;
70927;SDS011;58587;53.034;18.576;2024-01-25T01:44:56;11.20;;;2.10;;
70927;SDS011;58587;53.034;18.576;2024-01-25T01:47:21;11.15;;;2.08;;
70927;SDS011;58587;53.034;18.576;2024-01-25T01:49:47;14.57;;;2.83;;
70927;SDS011;58587;53.034;18.576;2024-01-25T01:52:13;12.68;;;2.45;;
70927;SDS011;58587;53.034;18.576;2024-01-25T01:54:38;15.17;;;2.30;;
70927;SDS011;58587;53.034;18.576;2024-01-25T01:57:05;10.90;;;1.90;;
70927;SDS011;58587;53.034;18.576;2024-01-25T01:59:32;9.68;;;1.55;;
70927;SDS011;58587;53.034;18.576;2024-01-25T02:01:57;15.30;;;2.17;;
70927;SDS011;58587;53.034;18.576;2024-01-25T02:04:22;9.90;;;1.33;;
70927;SDS011;58587;53.034;18.576;2024-01-25T02:06:48;7.33;;;1.20;;
70927;SDS011;58587;53.034;18.576;2024-01-25T02:09:13;17.90;;;3.80;;
70927;SDS011;58587;53.034;18.576;2024-01-25T02:11:38;11.00;;;2.47;;
70927;SDS011;58587;53.034;18.576;2024-01-25T02:14:04;14.67;;;2.70;;
70927;SDS011;58587;53.034;18.576;2024-01-25T02:16:30;15.43;;;2.78;;
70927;SDS011;58587;53.034;18.576;2024-01-25T02:18:55;14.40;;;2.60;;
70927;SDS011;58587;53.034;18.576;2024-01-25T02:21:22;19.60;;;3.08;;
70927;SDS011;58587;53.034;18.576;2024-01-25T02:23:48;8.60;;;1.57;;
70927;SDS011;58587;53.034;18.576;2024-01-25T02:26:13;13.43;;;3.30;;
70927;SDS011;58587;53.034;18.576;2024-01-25T02:28:38;17.97;;;5.93;;
70927;SDS011;58587;53.034;18.576;2024-01-25T02:31:04;16.47;;;1.97;;
70927;SDS011;58587;53.034;18.576;2024-01-25T02:33:29;21.77;;;3.30;;
70927;SDS011;58587;53.034;18.576;2024-01-25T02:35:55;14.33;;;2.83;;
70927;SDS011;58587;53.034;18.576;2024-01-25T02:38:20;9.80;;;1.20;;
70927;SDS011;58587;53.034;18.576;2024-01-25T02:40:46;11.90;;;2.57;;
70927;SDS011;58587;53.034;18.576;2024-01-25T02:43:11;13.73;;;2.20;;
70927;SDS011;58587;53.034;18.576;2024-01-25T02:45:36;18.63;;;2.73;;
70927;SDS011;58587;53.034;18.576;2024-01-25T02:48:02;11.17;;;1.40;;
70927;SDS011;58587;53.034;18.576;2024-01-25T02:50:28;14.48;;;1.45;;
70927;SDS011;58587;53.034;18.576;2024-01-25T02:52:53;7.13;;;0.93;;
70927;SDS011;58587;53.034;18.576;2024-01-25T02:55:19;9.48;;;1.50;;
70927;SDS011;58587;53.034;18.576;2024-01-25T02:57:45;12.30;;;1.80;;
70927;SDS011;58587;53.034;18.576;2024-01-25T03:00:10;11.20;;;2.23;;
70927;SDS011;58587;53.034;18.576;2024-01-25T03:02:36;12.35;;;1.52;;
70927;SDS011;58587;53.034;18.576;2024-01-25T03:05:01;8.63;;;1.33;;
70927;SDS011;58587;53.034;18.576;2024-01-25T03:07:27;9.93;;;1.07;;
70927;SDS011;58587;53.034;18.576;2024-01-25T03:09:52;16.20;;;2.60;;
70927;SDS011;58587;53.034;18.576;2024-01-25T03:12:17;11.23;;;1.58;;
70927;SDS011;58587;53.034;18.576;2024-01-25T03:14:44;10.47;;;1.47;;
70927;SDS011;58587;53.034;18.576;2024-01-25T03:17:09;15.68;;;2.10;;
70927;SDS011;58587;53.034;18.576;2024-01-25T03:19:37;10.13;;;1.83;;
70927;SDS011;58587;53.034;18.576;2024-01-25T03:22:02;11.87;;;1.90;;
70927;SDS011;58587;53.034;18.576;2024-01-25T03:24:27;9.57;;;1.83;;
70927;SDS011;58587;53.034;18.576;2024-01-25T03:26:53;16.33;;;2.90;;
70927;SDS011;58587;53.034;18.576;2024-01-25T03:29:19;9.63;;;2.30;;
70927;SDS011;58587;53.034;18.576;2024-01-25T03:31:44;15.70;;;1.98;;
70927;SDS011;58587;53.034;18.576;2024-01-25T03:34:09;12.80;;;3.63;;
70927;SDS011;58587;53.034;18.576;2024-01-25T03:36:35;15.30;;;2.77;;
70927;SDS011;58587;53.034;18.576;2024-01-25T03:39:01;17.20;;;2.60;;
70927;SDS011;58587;53.034;18.576;2024-01-25T03:41:26;13.32;;;2.10;;
70927;SDS011;58587;53.034;18.576;2024-01-25T03:43:54;7.13;;;1.30;;
70927;SDS011;58587;53.034;18.576;2024-01-25T03:46:19;13.32;;;1.98;;
70927;SDS011;58587;53.034;18.576;2024-01-25T03:48:45;9.90;;;1.63;;
70927;SDS011;58587;53.034;18.576;2024-01-25T03:51:10;8.73;;;1.80;;
70927;SDS011;58587;53.034;18.576;2024-01-25T03:53:35;12.33;;;1.40;;
70927;SDS011;58587;53.034;18.576;2024-01-25T03:56:00;10.83;;;2.07;;
70927;SDS011;58587;53.034;18.576;2024-01-25T03:58:26;12.70;;;1.80;;
70927;SDS011;58587;53.034;18.576;2024-01-25T04:00:51;13.80;;;2.55;;
70927;SDS011;58587;53.034;18.576;2024-01-25T04:03:17;10.97;;;2.10;;
70927;SDS011;58587;53.034;18.576;2024-01-25T04:05:42;16.13;;;2.47;;
70927;SDS011;58587;53.034;18.576;2024-01-25T04:08:07;15.37;;;2.27;;
70927;SDS011;58587;53.034;18.576;2024-01-25T04:10:33;8.00;;;1.53;;
70927;SDS011;58587;53.034;18.576;2024-01-25T04:12:58;18.25;;;2.72;;
70927;SDS011;58587;53.034;18.576;2024-01-25T04:15:25;13.70;;;2.40;;
70927;SDS011;58587;53.034;18.576;2024-01-25T04:17:51;18.75;;;3.70;;
70927;SDS011;58587;53.034;18.576;2024-01-25T04:20:18;11.02;;;2.40;;
70927;SDS011;58587;53.034;18.576;2024-01-25T04:22:43;8.97;;;2.30;;
70927;SDS011;58587;53.034;18.576;2024-01-25T04:25:09;15.27;;;2.50;;
70927;SDS011;58587;53.034;18.576;2024-01-25T04:27:36;11.07;;;1.60;;
70927;SDS011;58587;53.034;18.576;2024-01-25T04:30:02;15.10;;;1.50;;
70927;SDS011;58587;53.034;18.576;2024-01-25T04:32:28;8.68;;;1.40;;
70927;SDS011;58587;53.034;18.576;2024-01-25T04:34:54;7.75;;;1.55;;
70927;SDS011;58587;53.034;18.576;2024-01-25T04:37:19;10.67;;;1.00;;
70927;SDS011;58587;53.034;18.576;2024-01-25T04:39:44;12.50;;;1.20;;
70927;SDS011;58587;53.034;18.576;2024-01-25T04:42:09;9.40;;;1.47;;
70927;SDS011;58587;53.034;18.576;2024-01-25T04:44:35;11.57;;;3.20;;
70927;SDS011;58587;53.034;18.576;2024-01-25T04:47:00;5.83;;;1.40;;
70927;SDS011;58587;53.034;18.576;2024-01-25T04:49:26;6.00;;;1.20;;
70927;SDS011;58587;53.034;18.576;2024-01-25T04:51:51;6.77;;;0.70;;
70927;SDS011;58587;53.034;18.576;2024-01-25T04:54:16;21.65;;;4.13;;
70927;SDS011;58587;53.034;18.576;2024-01-25T04:56:42;7.53;;;1.40;;
70927;SDS011;58587;53.034;18.576;2024-01-25T04:59:07;12.30;;;2.03;;
70927;SDS011;58587;53.034;18.576;2024-01-25T05:01:33;8.20;;;1.50;;
70927;SDS011;58587;53.034;18.576;2024-01-25T05:03:58;8.23;;;0.83;;
70927;SDS011;58587;53.034;18.576;2024-01-25T05:06:23;9.15;;;1.73;;
70927;SDS011;58587;53.034;18.576;2024-01-25T05:08:49;20.20;;;3.95;;
70927;SDS011;58587;53.034;18.576;2024-01-25T05:11:14;13.10;;;2.83;;
70927;SDS011;58587;53.034;18.576;2024-01-25T05:13:39;9.57;;;2.07;;
70927;SDS011;58587;53.034;18.576;2024-01-25T05:16:05;10.67;;;1.07;;
70927;SDS011;58587;53.034;18.576;2024-01-25T05:18:30;10.20;;;1.17;;
70927;SDS011;58587;53.034;18.576;2024-01-25T05:20:55;5.40;;;0.73;;
70927;SDS011;58587;53.034;18.576;2024-01-25T05:23:21;6.63;;;1.00;;
70927;SDS011;58587;53.034;18.576;2024-01-25T05:25:46;5.93;;;0.60;;
70927;SDS011;58587;53.034;18.576;2024-01-25T05:28:12;7.40;;;1.08;;
70927;SDS011;58587;53.034;18.576;2024-01-25T05:30:37;5.83;;;0.90;;
70927;SDS011;58587;53.034;18.576;2024-01-25T05:33:03;8.25;;;0.90;;
70927;SDS011;58587;53.034;18.576;2024-01-25T05:35:28;8.17;;;0.97;;
70927;SDS011;58587;53.034;18.576;2024-01-25T05:37:54;5.20;;;0.87;;
70927;SDS011;58587;53.034;18.576;2024-01-25T05:40:19;4.93;;;0.80;;
70927;SDS011;58587;53.034;18.576;2024-01-25T05:42:44;4.23;;;0.80;;
70927;SDS011;58587;53.034;18.576;2024-01-25T05:45:10;13.53;;;2.73;;
70927;SDS011;58587;53.034;18.576;2024-01-25T05:47:35;8.40;;;1.35;;
70927;SDS011;58587;53.034;18.576;2024-01-25T05:50:00;8.40;;;1.93;;
70927;SDS011;58587;53.034;18.576;2024-01-25T05:52:27;6.72;;;1.00;;
70927;SDS011;58587;53.034;18.576;2024-01-25T05:54:52;7.87;;;1.47;;
70927;SDS011;58587;53.034;18.576;2024-01-25T05:57:18;4.37;;;2.07;;
70927;SDS011;58587;53.034;18.576;2024-01-25T05:59:44;8.68;;;3.80;;
70927;SDS011;58587;53.034;18.576;2024-01-25T06:02:09;3.47;;;1.10;;
70927;SDS011;58587;53.034;18.576;2024-01-25T06:04:35;5.77;;;1.47;;
70927;SDS011;58587;53.034;18.576;2024-01-25T06:07:00;8.33;;;1.87;;
70927;SDS011;58587;53.034;18.576;2024-01-25T06:09:25;7.95;;;1.85;;
70927;SDS011;58587;53.034;18.576;2024-01-25T06:11:51;21.13;;;7.40;;
70927;SDS011;58587;53.034;18.576;2024-01-25T06:14:16;6.67;;;1.47;;
70927;SDS011;58587;53.034;18.576;2024-01-25T06:16:42;10.83;;;2.70;;
70927;SDS011;58587;53.034;18.576;2024-01-25T06:19:07;17.63;;;5.07;;
70927;SDS011;58587;53.034;18.576;2024-01-25T06:21:33;6.17;;;1.50;;
70927;SDS011;58587;53.034;18.576;2024-01-25T06:24:00;13.32;;;3.85;;
70927;SDS011;58587;53.034;18.576;2024-01-25T06:26:29;5.32;;;1.30;;
70927;SDS011;58587;53.034;18.576;2024-01-25T06:28:54;2.93;;;0.90;;
70927;SDS011;58587;53.034;18.576;2024-01-25T06:31:20;4.90;;;1.70;;
70927;SDS011;58587;53.034;18.576;2024-01-25T06:33:45;15.02;;;7.72;;
70927;SDS011;58587;53.034;18.576;2024-01-25T06:36:15;18.57;;;10.63;;
70927;SDS011;58587;53.034;18.576;2024-01-25T06:38:40;12.17;;;3.83;;
70927;SDS011;58587;53.034;18.576;2024-01-25T06:41:05;15.60;;;5.25;;
70927;SDS011;58587;53.034;18.576;2024-01-25T06:43:31;6.17;;;1.50;;
70927;SDS011;58587;53.034;18.576;2024-01-25T06:45:56;8.67;;;2.93;;
70927;SDS011;58587;53.034;18.576;2024-01-25T06:48:21;6.50;;;1.53;;
70927;SDS011;58587;53.034;18.576;2024-01-25T06:50:46;8.40;;;2.27;;
70927;SDS011;58587;53.034;18.576;2024-01-25T06:53:12;5.37;;;1.40;;
70927;SDS011;58587;53.034;18.576;2024-01-25T06:55:37;10.13;;;2.80;;
70927;SDS011;58587;53.034;18.576;2024-01-25T06:58:02;12.53;;;3.67;;
70927;SDS011;58587;53.034;18.576;2024-01-25T07:00:28;6.72;;;1.75;;
70927;SDS011;58587;53.034;18.576;2024-01-25T07:02:53;7.40;;;2.00;;
70927;SDS011;58587;53.034;18.576;2024-01-25T07:05:19;2.73;;;0.87;;
70927;SDS011;58587;53.034;18.576;2024-01-25T07:07:44;2.10;;;0.63;;
70927;SDS011;58587;53.034;18.576;2024-01-25T07:10:10;5.93;;;2.30;;
70927;SDS011;58587;53.034;18.576;2024-01-25T07:12:35;2.38;;;1.00;;
70927;SDS011;58587;53.034;18.576;2024-01-25T07:15:00;9.37;;;2.73;;
70927;SDS011;58587;53.034;18.576;2024-01-25T07:17:26;3.10;;;1.53;;
70927;SDS011;58587;53.034;18.576;2024-01-25T07:19:51;4.10;;;1.50;;
70927;SDS011;58587;53.034;18.576;2024-01-25T07:22:16;5.23;;;4.30;;
70927;SDS011;58587;53.034;18.576;2024-01-25T07:24:43;3.03;;;1.60;;
70927;SDS011;58587;53.034;18.576;2024-01-25T07:27:09;4.87;;;1.67;;
70927;SDS011;58587;53.034;18.576;2024-01-25T07:29:35;2.75;;;0.70;;
70927;SDS011;58587;53.034;18.576;2024-01-25T07:32:01;2.38;;;0.50;;
70927;SDS011;58587;53.034;18.576;2024-01-25T07:34:27;4.33;;;1.33;;
70927;SDS011;58587;53.034;18.576;2024-01-25T07:36:52;3.67;;;1.17;;
70927;SDS011;58587;53.034;18.576;2024-01-25T07:39:18;8.43;;;3.17;;
70927;SDS011;58587;53.034;18.576;2024-01-25T07:41:43;2.33;;;0.50;;
70927;SDS011;58587;53.034;18.576;2024-01-25T07:44:08;2.17;;;0.50;;
70927;SDS011;58587;53.034;18.576;2024-01-25T07:46:34;4.20;;;1.43;;
70927;SDS011;58587;53.034;18.576;2024-01-25T07:48:59;12.63;;;2.60;;
70927;SDS011;58587;53.034;18.576;2024-01-25T07:51:24;4.83;;;1.20;;
70927;SDS011;58587;53.034;18.576;2024-01-25T07:53:53;4.40;;;2.63;;
70927;SDS011;58587;53.034;18.576;2024-01-25T07:56:18;3.77;;;0.60;;
70927;SDS011;58587;53.034;18.576;2024-01-25T07:58:44;4.95;;;2.15;;
70927;SDS011;58587;53.034;18.576;2024-01-25T08:01:10;2.17;;;0.33;;
70927;SDS011;58587;53.034;18.576;2024-01-25T08:03:36;1.42;;;0.28;;
70927;SDS011;58587;53.034;18.576;2024-01-25T08:06:02;1.73;;;0.20;;
70927;SDS011;58587;53.034;18.576;2024-01-25T08:08:27;2.72;;;1.00;;
70927;SDS011;58587;53.034;18.576;2024-01-25T08:10:53;4.90;;;1.60;;
70927;SDS011;58587;53.034;18.576;2024-01-25T08:13:18;4.70;;;2.07;;
70927;SDS011;58587;53.034;18.576;2024-01-25T08:15:44;25.58;;;17.50;;
70927;SDS011;58587;53.034;18.576;2024-01-25T08:18:10;4.50;;;1.17;;
70927;SDS011;58587;53.034;18.576;2024-01-25T08:20:36;3.03;;;0.80;;
70927;SDS011;58587;53.034;18.576;2024-01-25T08:23:02;1.08;;;0.35;;
70927;SDS011;58587;53.034;18.576;2024-01-25T08:25:28;11.00;;;3.80;;
70927;SDS011;58587;53.034;18.576;2024-01-25T08:27:53;5.93;;;1.33;;
70927;SDS011;58587;53.034;18.576;2024-01-25T08:30:18;7.63;;;1.80;;
70927;SDS011;58587;53.034;18.576;2024-01-25T08:32:43;2.60;;;0.70;;
70927;SDS011;58587;53.034;18.576;2024-01-25T08:35:09;4.53;;;0.47;;
70927;SDS011;58587;53.034;18.576;2024-01-25T08:37:35;7.63;;;1.48;;
70927;SDS011;58587;53.034;18.576;2024-01-25T08:40:03;4.13;;;0.70;;
70927;SDS011;58587;53.034;18.576;2024-01-25T08:42:30;2.38;;;0.17;;
70927;SDS011;58587;53.034;18.576;2024-01-25T08:44:56;3.00;;;0.33;;
70927;SDS011;58587;53.034;18.576;2024-01-25T08:47:21;4.37;;;0.40;;
70927;SDS011;58587;53.034;18.576;2024-01-25T08:49:46;5.73;;;1.40;;
70927;SDS011;58587;53.034;18.576;2024-01-25T08:52:12;7.10;;;1.30;;
70927;SDS011;58587;53.034;18.576;2024-01-25T08:54:37;4.37;;;0.60;;
70927;SDS011;58587;53.034;18.576;2024-01-25T08:57:03;3.85;;;1.00;;
70927;SDS011;58587;53.034;18.576;2024-01-25T08:59:29;2.70;;;0.38;;
70927;SDS011;58587;53.034;18.576;2024-01-25T09:01:57;4.05;;;0.60;;
70927;SDS011;58587;53.034;18.576;2024-01-25T09:04:23;3.63;;;0.60;;
70927;SDS011;58587;53.034;18.576;2024-01-25T09:06:48;3.50;;;0.43;;
70927;SDS011;58587;53.034;18.576;2024-01-25T09:09:13;3.30;;;0.60;;
70927;SDS011;58587;53.034;18.576;2024-01-25T09:11:39;7.57;;;2.40;;
70927;SDS011;58587;53.034;18.576;2024-01-25T09:14:04;5.07;;;2.27;;
70927;SDS011;58587;53.034;18.576;2024-01-25T09:16:29;3.57;;;0.90;;
70927;SDS011;58587;53.034;18.576;2024-01-25T09:18:55;4.63;;;1.00;;
70927;SDS011;58587;53.034;18.576;2024-01-25T09:21:20;6.73;;;1.50;;
70927;SDS011;58587;53.034;18.576;2024-01-25T09:23:46;19.00;;;3.30;;
70927;SDS011;58587;53.034;18.576;2024-01-25T09:26:11;17.20;;;3.50;;
70927;SDS011;58587;53.034;18.576;2024-01-25T09:28:36;7.23;;;0.87;;
70927;SDS011;58587;53.034;18.576;2024-01-25T09:31:02;15.37;;;3.03;;
70927;SDS011;58587;53.034;18.576;2024-01-25T09:33:28;7.90;;;1.50;;
70927;SDS011;58587;53.034;18.576;2024-01-25T09:35:54;9.50;;;1.83;;
70927;SDS011;58587;53.034;18.576;2024-01-25T09:38:20;7.13;;;1.43;;
70927;SDS011;58587;53.034;18.576;2024-01-25T09:40:45;4.97;;;0.57;;
70927;SDS011;58587;53.034;18.576;2024-01-25T09:43:11;7.95;;;1.00;;
70927;SDS011;58587;53.034;18.576;2024-01-25T09:45:37;5.87;;;0.93;;
70927;SDS011;58587;53.034;18.576;2024-01-25T09:48:02;16.50;;;2.93;;
70927;SDS011;58587;53.034;18.576;2024-01-25T09:50:29;6.00;;;1.15;;
70927;SDS011;58587;53.034;18.576;2024-01-25T09:52:58;5.28;;;0.70;;
70927;SDS011;58587;53.034;18.576;2024-01-25T09:55:25;6.15;;;1.30;;
70927;SDS011;58587;53.034;18.576;2024-01-25T09:57:53;9.43;;;2.28;;
70927;SDS011;58587;53.034;18.576;2024-01-25T10:00:22;13.20;;;2.90;;
70927;SDS011;58587;53.034;18.576;2024-01-25T10:02:48;10.05;;;2.55;;
70927;SDS011;58587;53.034;18.576;2024-01-25T10:05:17;14.07;;;5.05;;
70927;SDS011;58587;53.034;18.576;2024-01-25T10:07:43;11.40;;;2.95;;
70927;SDS011;58587;53.034;18.576;2024-01-25T10:10:10;24.87;;;6.27;;
70927;SDS011;58587;53.034;18.576;2024-01-25T10:12:37;7.45;;;2.10;;
70927;SDS011;58587;53.034;18.576;2024-01-25T10:15:04;11.18;;;3.13;;
70927;SDS011;58587;53.034;18.576;2024-01-25T10:17:30;15.40;;;3.92;;
70927;SDS011;58587;53.034;18.576;2024-01-25T10:19:55;24.53;;;6.33;;
70927;SDS011;58587;53.034;18.576;2024-01-25T10:22:21;12.77;;;3.33;;
70927;SDS011;58587;53.034;18.576;2024-01-25T10:24:46;11.97;;;3.00;;
70927;SDS011;58587;53.034;18.576;2024-01-25T10:27:15;11.98;;;3.33;;
70927;SDS011;58587;53.034;18.576;2024-01-25T10:29:41;14.02;;;3.67;;
70927;SDS011;58587;53.034;18.576;2024-01-25T10:32:07;6.73;;;1.23;;
70927;SDS011;58587;53.034;18.576;2024-01-25T10:34:34;6.95;;;1.83;;
70927;SDS011;58587;53.034;18.576;2024-01-25T10:37:00;11.98;;;1.40;;
70927;SDS011;58587;53.034;18.576;2024-01-25T10:39:28;10.75;;;1.75;;
70927;SDS011;58587;53.034;18.576;2024-01-25T10:41:54;8.83;;;1.40;;
70927;SDS011;58587;53.034;18.576;2024-01-25T10:44:21;13.07;;;1.70;;
70927;SDS011;58587;53.034;18.576;2024-01-25T10:46:46;5.90;;;1.80;;
70927;SDS011;58587;53.034;18.576;2024-01-25T10:49:13;6.80;;;1.60;;
70927;SDS011;58587;53.034;18.576;2024-01-25T10:51:38;5.63;;;1.33;;
70927;SDS011;58587;53.034;18.576;2024-01-25T10:54:05;3.70;;;0.60;;
70927;SDS011;58587;53.034;18.576;2024-01-25T10:56:32;5.10;;;1.50;;
70927;SDS011;58587;53.034;18.576;2024-01-25T10:58:57;8.57;;;1.73;;
70927;SDS011;58587;53.034;18.576;2024-01-25T11:01:24;11.20;;;3.67;;
70927;SDS011;58587;53.034;18.576;2024-01-25T11:03:51;11.68;;;2.30;;
70927;SDS011;58587;53.034;18.576;2024-01-25T11:06:17;8.30;;;0.93;;
70927;SDS011;58587;53.034;18.576;2024-01-25T11:08:46;4.93;;;1.13;;
70927;SDS011;58587;53.034;18.576;2024-01-25T11:11:13;9.90;;;2.00;;
70927;SDS011;58587;53.034;18.576;2024-01-25T11:13:39;25.10;;;5.50;;
70927;SDS011;58587;53.034;18.576;2024-01-25T11:16:12;10.27;;;2.40;;
70927;SDS011;58587;53.034;18.576;2024-01-25T11:18:50;5.63;;;1.95;;
70927;SDS011;58587;53.034;18.576;2024-01-25T11:21:24;6.38;;;1.35;;
70927;SDS011;58587;53.034;18.576;2024-01-25T11:24:00;6.38;;;0.95;;
70927;SDS011;58587;53.034;18.576;2024-01-25T11:26:26;13.07;;;1.53;;
70927;SDS011;58587;53.034;18.576;2024-01-25T11:28:52;13.18;;;1.70;;
70927;SDS011;58587;53.034;18.576;2024-01-25T11:31:17;12.45;;;3.33;;
70927;SDS011;58587;53.034;18.576;2024-01-25T11:33:43;4.22;;;1.08;;
70927;SDS011;58587;53.034;18.576;2024-01-25T11:36:09;4.37;;;1.20;;
70927;SDS011;58587;53.034;18.576;2024-01-25T11:38:36;4.67;;;0.90;;
70927;SDS011;58587;53.034;18.576;2024-01-25T11:41:01;7.35;;;1.67;;
70927;SDS011;58587;53.034;18.576;2024-01-25T11:43:27;6.80;;;1.43;;
70927;SDS011;58587;53.034;18.576;2024-01-25T11:45:52;6.78;;;2.10;;
70927;SDS011;58587;53.034;18.576;2024-01-25T11:48:18;6.65;;;1.35;;
70927;SDS011;58587;53.034;18.576;2024-01-25T11:50:43;7.37;;;2.30;;
70927;SDS011;58587;53.034;18.576;2024-01-25T11:53:09;5.57;;;1.67;;
70927;SDS011;58587;53.034;18.576;2024-01-25T11:55:35;10.30;;;2.10;;
70927;SDS011;58587;53.034;18.576;2024-01-25T11:58:00;5.88;;;2.00;;
70927;SDS011;58587;53.034;18.576;2024-01-25T12:00:26;4.23;;;1.40;;
70927;SDS011;58587;53.034;18.576;2024-01-25T12:02:52;12.75;;;2.90;;
70927;SDS011;58587;53.034;18.576;2024-01-25T12:05:18;9.32;;;2.97;;
70927;SDS011;58587;53.034;18.576;2024-01-25T12:07:44;10.17;;;1.70;;
70927;SDS011;58587;53.034;18.576;2024-01-25T12:10:10;10.52;;;3.50;;
70927;SDS011;58587;53.034;18.576;2024-01-25T12:12:42;9.63;;;2.20;;
70927;SDS011;58587;53.034;18.576;2024-01-25T12:15:07;4.57;;;1.30;;
70927;SDS011;58587;53.034;18.576;2024-01-25T12:17:33;6.13;;;1.80;;
70927;SDS011;58587;53.034;18.576;2024-01-25T12:20:03;4.40;;;1.10;;
70927;SDS011;58587;53.034;18.576;2024-01-25T12:22:33;13.88;;;3.22;;
70927;SDS011;58587;53.034;18.576;2024-01-25T12:24:58;6.43;;;0.80;;
70927;SDS011;58587;53.034;18.576;2024-01-25T12:27:25;17.53;;;4.60;;
70927;SDS011;58587;53.034;18.576;2024-01-25T12:29:51;6.45;;;1.60;;
70927;SDS011;58587;53.034;18.576;2024-01-25T12:32:20;5.15;;;0.80;;
70927;SDS011;58587;53.034;18.576;2024-01-25T12:34:52;6.47;;;1.13;;
70927;SDS011;58587;53.034;18.576;2024-01-25T12:37:21;7.63;;;1.33;;
70927;SDS011;58587;53.034;18.576;2024-01-25T12:39:47;19.35;;;5.32;;
70927;SDS011;58587;53.034;18.576;2024-01-25T12:42:12;16.45;;;4.65;;
70927;SDS011;58587;53.034;18.576;2024-01-25T12:44:38;20.77;;;7.70;;
70927;SDS011;58587;53.034;18.576;2024-01-25T12:47:04;14.68;;;4.63;;
70927;SDS011;58587;53.034;18.576;2024-01-25T12:49:31;10.48;;;2.95;;
70927;SDS011;58587;53.034;18.576;2024-01-25T12:51:57;13.23;;;3.03;;
70927;SDS011;58587;53.034;18.576;2024-01-25T12:54:22;9.53;;;3.30;;
70927;SDS011;58587;53.034;18.576;2024-01-25T12:56:47;11.97;;;2.33;;
70927;SDS011;58587;53.034;18.576;2024-01-25T12:59:13;11.65;;;2.08;;
70927;SDS011;58587;53.034;18.576;2024-01-25T13:01:38;12.65;;;3.17;;
70927;SDS011;58587;53.034;18.576;2024-01-25T13:04:03;13.10;;;4.13;;
70927;SDS011;58587;53.034;18.576;2024-01-25T13:06:29;7.77;;;2.27;;
70927;SDS011;58587;53.034;18.576;2024-01-25T13:08:54;25.90;;;10.30;;
70927;SDS011;58587;53.034;18.576;2024-01-25T13:11:19;16.57;;;6.00;;
70927;SDS011;58587;53.034;18.576;2024-01-25T13:13:45;13.93;;;5.13;;
70927;SDS011;58587;53.034;18.576;2024-01-25T13:16:10;11.43;;;3.35;;
70927;SDS011;58587;53.034;18.576;2024-01-25T13:18:36;24.37;;;7.33;;
70927;SDS011;58587;53.034;18.576;2024-01-25T13:21:01;70.30;;;22.90;;
70927;SDS011;58587;53.034;18.576;2024-01-25T13:23:26;63.20;;;21.63;;
70927;SDS011;58587;53.034;18.576;2024-01-25T13:25:52;49.07;;;16.43;;
70927;SDS011;58587;53.034;18.576;2024-01-25T13:28:17;38.20;;;11.67;;
70927;SDS011;58587;53.034;18.576;2024-01-25T13:30:42;42.07;;;15.50;;
70927;SDS011;58587;53.034;18.576;2024-01-25T13:33:07;33.70;;;13.48;;
70927;SDS011;58587;53.034;18.576;2024-01-25T13:35:33;35.37;;;13.87;;
70927;SDS011;58587;53.034;18.576;2024-01-25T13:37:58;14.70;;;6.33;;
70927;SDS011;58587;53.034;18.576;2024-01-25T13:40:26;9.20;;;5.68;;
70927;SDS011;58587;53.034;18.576;2024-01-25T13:42:51;16.23;;;4.87;;
70927;SDS011;58587;53.034;18.576;2024-01-25T13:45:17;22.73;;;6.23;;
70927;SDS011;58587;53.034;18.576;2024-01-25T13:47:42;19.03;;;5.47;;
70927;SDS011;58587;53.034;18.576;2024-01-25T13:50:07;13.37;;;4.50;;
70927;SDS011;58587;53.034;18.576;2024-01-25T13:52:33;18.17;;;8.93;;
70927;SDS011;58587;53.034;18.576;2024-01-25T13:54:58;36.23;;;11.17;;
70927;SDS011;58587;53.034;18.576;2024-01-25T13:57:23;33.13;;;16.13;;
70927;SDS011;58587;53.034;18.576;2024-01-25T13:59:49;21.03;;;8.43;;
70927;SDS011;58587;53.034;18.576;2024-01-25T14:02:15;26.88;;;15.25;;
70927;SDS011;58587;53.034;18.576;2024-01-25T14:04:40;10.57;;;2.87;;
70927;SDS011;58587;53.034;18.576;2024-01-25T14:07:06;11.40;;;3.67;;
70927;SDS011;58587;53.034;18.576;2024-01-25T14:09:31;13.50;;;5.60;;
70927;SDS011;58587;53.034;18.576;2024-01-25T14:11:56;20.13;;;8.47;;
70927;SDS011;58587;53.034;18.576;2024-01-25T14:14:22;6.03;;;2.45;;
70927;SDS011;58587;53.034;18.576;2024-01-25T14:16:47;8.27;;;3.50;;
70927;SDS011;58587;53.034;18.576;2024-01-25T14:19:13;6.50;;;2.77;;